createdAt,value
2018-12-06T00:01:45.204Z,66.53
2018-12-06T00:04:13.684Z,66.87
2018-12-06T00:06:42.172Z,63.03
2018-12-06T00:09:10.640Z,64.50
2018-12-06T00:11:39.208Z,65.50
2018-12-06T00:14:08.465Z,65.50
2018-12-06T00:16:36.917Z,65.17
2018-12-06T00:19:10.095Z,67.43
2018-12-06T00:21:38.611Z,68.20
2018-12-06T00:24:07.125Z,71.77
2018-12-06T00:26:35.624Z,67.73
2018-12-06T00:29:04.157Z,68.00
2018-12-06T00:31:32.616Z,71.53
2018-12-06T00:34:01.222Z,72.30
2018-12-06T00:36:29.787Z,66.30
2018-12-06T00:38:58.439Z,73.07
2018-12-06T00:41:27.027Z,69.90
2018-12-06T00:43:55.480Z,72.43
2018-12-06T00:46:23.946Z,72.70
2018-12-06T00:48:52.411Z,68.50
2018-12-06T00:51:20.875Z,69.97
2018-12-06T00:53:49.555Z,74.83
2018-12-06T00:56:18.042Z,73.97
2018-12-06T00:58:46.534Z,71.40
2018-12-06T01:02:39.587Z,69.03
2018-12-06T01:05:08.211Z,67.33
2018-12-06T01:07:36.664Z,71.53
2018-12-06T01:10:06.462Z,69.60
2018-12-06T01:12:34.970Z,68.53
2018-12-06T01:15:03.979Z,62.43
2018-12-06T01:17:32.601Z,60.70
2018-12-06T01:20:01.037Z,58.90
2018-12-06T01:22:29.519Z,53.60
2018-12-06T01:24:58.047Z,57.13
2018-12-06T01:27:26.508Z,55.83
2018-12-06T01:29:55.008Z,62.23
2018-12-06T01:32:23.672Z,57.77
2018-12-06T01:34:52.273Z,58.03
2018-12-06T01:37:20.824Z,57.67
2018-12-06T01:39:49.354Z,60.40
2018-12-06T01:42:17.917Z,62.80
2018-12-06T01:44:46.378Z,59.23
2018-12-06T01:47:14.915Z,61.60
2018-12-06T01:49:43.408Z,62.03
2018-12-06T01:52:12.018Z,65.27
2018-12-06T01:54:40.735Z,65.20
2018-12-06T01:57:09.193Z,65.37
2018-12-06T01:59:37.752Z,65.63
2018-12-06T02:02:06.302Z,65.70
2018-12-06T02:04:34.765Z,67.90
2018-12-06T02:07:03.243Z,70.00
2018-12-06T02:09:31.752Z,66.30
2018-12-06T02:12:00.370Z,69.70
2018-12-06T02:14:28.977Z,71.97
2018-12-06T02:16:57.744Z,74.93
2018-12-06T02:19:26.181Z,75.37
2018-12-06T02:21:54.631Z,82.53
2018-12-06T02:24:23.141Z,77.20
2018-12-06T02:26:51.741Z,79.53
2018-12-06T02:29:20.212Z,81.47
2018-12-06T02:31:48.865Z,76.23
2018-12-06T02:34:17.305Z,82.70
2018-12-06T02:36:45.746Z,81.00
2018-12-06T02:39:14.229Z,79.17
2018-12-06T02:41:42.710Z,83.67
2018-12-06T02:44:11.438Z,83.60
2018-12-06T02:46:39.929Z,87.70
2018-12-06T02:49:08.413Z,93.53
2018-12-06T02:51:37.046Z,96.33
2018-12-06T02:54:05.539Z,96.50
2018-12-06T02:56:34.098Z,94.93
2018-12-06T02:59:02.563Z,96.33
2018-12-06T03:01:31.050Z,82.43
2018-12-06T03:03:59.529Z,90.67
2018-12-06T03:06:28.027Z,91.03
2018-12-06T03:08:56.525Z,90.37
2018-12-06T03:11:24.997Z,83.87
2018-12-06T03:13:53.472Z,88.13
2018-12-06T03:16:21.968Z,85.30
2018-12-06T03:18:50.408Z,90.27
2018-12-06T03:21:18.857Z,84.90
2018-12-06T03:23:47.391Z,77.90
2018-12-06T03:26:15.875Z,77.60
2018-12-06T03:28:44.429Z,71.00
2018-12-06T03:31:12.936Z,66.93
2018-12-06T03:33:41.647Z,63.43
2018-12-06T03:36:10.191Z,64.67
2018-12-06T03:38:38.657Z,65.20
2018-12-06T03:41:07.452Z,66.57
2018-12-06T03:43:35.942Z,71.73
2018-12-06T03:46:04.471Z,74.57
2018-12-06T03:48:32.984Z,74.70
2018-12-06T03:51:01.480Z,73.60
2018-12-06T03:53:30.324Z,78.27
2018-12-06T03:55:58.833Z,85.60
2018-12-06T03:58:27.256Z,84.40
2018-12-06T04:00:55.764Z,85.17
2018-12-06T04:03:24.217Z,80.37
2018-12-06T04:05:52.972Z,86.47
2018-12-06T04:08:21.533Z,82.13
2018-12-06T04:10:49.977Z,87.00
2018-12-06T04:13:18.440Z,80.93
2018-12-06T04:15:46.974Z,77.70
2018-12-06T04:18:15.477Z,82.10
2018-12-06T04:20:43.934Z,86.57
2018-12-06T04:23:12.460Z,85.33
2018-12-06T04:25:40.908Z,82.00
2018-12-06T04:28:09.359Z,87.90
2018-12-06T04:30:37.868Z,81.80
2018-12-06T04:33:06.340Z,87.13
2018-12-06T04:35:34.763Z,81.67
2018-12-06T04:38:03.404Z,78.03
2018-12-06T04:40:31.877Z,81.60
2018-12-06T04:43:00.413Z,88.00
2018-12-06T04:45:28.942Z,84.27
2018-12-06T04:47:57.581Z,80.27
2018-12-06T04:50:26.171Z,91.07
2018-12-06T04:52:54.731Z,85.47
2018-12-06T04:55:23.169Z,83.67
2018-12-06T04:57:51.778Z,82.87
2018-12-06T05:00:20.386Z,79.47
2018-12-06T05:02:48.843Z,87.10
2018-12-06T05:05:17.566Z,83.87
2018-12-06T05:07:46.122Z,84.13
2018-12-06T05:10:14.619Z,79.63
2018-12-06T05:12:43.256Z,80.40
2018-12-06T05:15:11.828Z,82.50
2018-12-06T05:17:40.411Z,88.83
2018-12-06T05:20:08.887Z,82.30
2018-12-06T05:22:37.378Z,86.53
2018-12-06T05:25:06.427Z,85.50
2018-12-06T05:27:34.896Z,85.53
2018-12-06T05:30:04.149Z,83.20
2018-12-06T05:32:32.679Z,83.03
2018-12-06T05:35:01.248Z,82.17
2018-12-06T05:37:29.735Z,85.60
2018-12-06T05:39:58.213Z,81.67
2018-12-06T05:42:26.688Z,88.27
2018-12-06T05:44:55.304Z,87.90
2018-12-06T05:47:23.919Z,84.50
2018-12-06T05:49:52.376Z,85.37
2018-12-06T05:52:20.888Z,78.67
2018-12-06T05:54:49.345Z,83.37
2018-12-06T05:57:17.793Z,83.83
2018-12-06T05:59:46.284Z,83.33
2018-12-06T06:02:14.715Z,92.70
2018-12-06T06:04:43.179Z,88.47
2018-12-06T06:07:11.699Z,82.97
2018-12-06T06:09:40.136Z,93.40
2018-12-06T06:12:08.569Z,88.30
2018-12-06T06:14:37.143Z,93.23
2018-12-06T06:17:05.744Z,85.67
2018-12-06T06:19:34.183Z,85.93
2018-12-06T06:22:02.664Z,84.30
2018-12-06T06:24:31.171Z,80.53
2018-12-06T06:26:59.624Z,88.33
2018-12-06T06:29:28.122Z,87.93
2018-12-06T06:31:56.740Z,90.30
2018-12-06T06:34:25.234Z,87.60
2018-12-06T06:36:53.739Z,89.87
2018-12-06T06:39:22.329Z,90.93
2018-12-06T06:41:50.820Z,93.70
2018-12-06T06:44:19.356Z,92.07
2018-12-06T06:46:47.840Z,94.77
2018-12-06T06:49:16.264Z,89.33
2018-12-06T06:51:44.779Z,89.40
2018-12-06T06:54:13.229Z,86.37
2018-12-06T06:56:41.765Z,90.47
2018-12-06T06:59:10.235Z,89.43
2018-12-06T07:01:38.821Z,91.27
2018-12-06T07:04:07.260Z,86.57
2018-12-06T07:06:35.773Z,87.40
2018-12-06T07:09:07.197Z,90.90
2018-12-06T07:11:36.234Z,94.53
2018-12-06T07:14:05.021Z,91.47
2018-12-06T07:16:33.504Z,98.17
2018-12-06T07:19:02.036Z,96.50
2018-12-06T07:21:30.530Z,96.37
2018-12-06T07:23:59.017Z,95.33
2018-12-06T07:26:27.649Z,92.73
2018-12-06T07:28:56.156Z,99.57
2018-12-06T07:31:24.633Z,95.77
2018-12-06T07:33:53.277Z,96.00
2018-12-06T07:36:21.887Z,92.37
2018-12-06T07:38:50.310Z,90.07
2018-12-06T07:41:18.822Z,100.07
2018-12-06T07:43:47.316Z,104.83
2018-12-06T07:46:15.802Z,102.20
2018-12-06T07:48:44.402Z,103.50
2018-12-06T07:51:12.919Z,103.97
2018-12-06T07:55:05.637Z,100.20
2018-12-06T07:57:34.116Z,96.93
2018-12-06T08:00:02.600Z,97.53
2018-12-06T08:02:31.105Z,94.73
2018-12-06T08:04:59.536Z,98.93
2018-12-06T08:07:28.116Z,95.10
2018-12-06T08:09:56.820Z,91.30
2018-12-06T08:12:25.324Z,90.83
2018-12-06T08:14:53.791Z,91.70
2018-12-06T08:17:22.341Z,89.97
2018-12-06T08:19:50.775Z,91.43
2018-12-06T08:22:19.240Z,88.37
2018-12-06T08:24:47.779Z,92.63
2018-12-06T08:27:16.324Z,87.77
2018-12-06T08:29:44.822Z,86.10
2018-12-06T08:32:13.291Z,88.63
2018-12-06T08:34:41.774Z,83.07
2018-12-06T08:37:10.507Z,87.00
2018-12-06T08:39:39.018Z,90.40
2018-12-06T08:42:07.469Z,87.03
2018-12-06T08:44:35.907Z,89.30
2018-12-06T08:47:04.490Z,87.23
2018-12-06T08:49:32.941Z,87.43
2018-12-06T08:52:01.409Z,88.20
2018-12-06T08:54:29.911Z,88.87
2018-12-06T08:56:58.391Z,85.67
2018-12-06T08:59:27.002Z,85.53
2018-12-06T09:01:55.575Z,86.53
2018-12-06T09:04:24.035Z,85.83
2018-12-06T09:06:52.875Z,90.07
2018-12-06T09:09:21.443Z,83.63
2018-12-06T09:11:50.017Z,88.60
2018-12-06T09:14:18.493Z,90.30
2018-12-06T09:16:46.992Z,90.47
2018-12-06T09:19:15.464Z,87.40
2018-12-06T09:21:43.933Z,86.70
2018-12-06T09:24:12.447Z,133.47
2018-12-06T09:26:40.996Z,147.93
2018-12-06T09:29:09.431Z,114.17
2018-12-06T09:31:38.004Z,168.53
2018-12-06T09:34:07.459Z,127.07
2018-12-06T09:36:37.249Z,112.20
2018-12-06T09:39:08.983Z,92.20
2018-12-06T09:49:07.359Z,96.17
2018-12-06T09:51:35.816Z,90.30
2018-12-06T09:54:04.516Z,86.37
2018-12-06T09:56:33.029Z,84.23
2018-12-06T09:59:01.537Z,82.00
2018-12-06T10:01:30.011Z,80.83
2018-12-06T10:03:58.536Z,81.60
2018-12-06T10:06:27.042Z,85.40
2018-12-06T10:08:55.519Z,83.03
2018-12-06T10:11:24.087Z,83.30
2018-12-06T10:13:52.521Z,82.37
2018-12-06T10:16:20.968Z,79.70
2018-12-06T10:18:49.610Z,78.53
2018-12-06T10:21:18.067Z,82.47
2018-12-06T10:23:46.544Z,82.67
2018-12-06T10:26:15.087Z,88.20
2018-12-06T10:28:43.549Z,75.93
2018-12-06T10:31:12.037Z,75.97
2018-12-06T10:33:40.551Z,76.30
2018-12-06T10:36:09.049Z,79.70
2018-12-06T10:38:37.549Z,78.80
2018-12-06T10:41:06.071Z,75.50
2018-12-06T10:43:34.541Z,79.87
2018-12-06T10:46:03.077Z,77.40
2018-12-06T10:48:31.688Z,78.67
2018-12-06T10:51:11.387Z,79.67
2018-12-06T10:53:40.124Z,81.13
2018-12-06T10:56:08.590Z,78.47
2018-12-06T10:58:37.060Z,79.97
2018-12-06T11:01:08.570Z,89.70
2018-12-06T11:03:42.386Z,91.23
2018-12-06T11:06:10.901Z,99.83
2018-12-06T11:08:39.369Z,84.83
2018-12-06T11:11:07.908Z,81.40
2018-12-06T11:13:36.430Z,79.23
2018-12-06T11:16:04.918Z,79.30
2018-12-06T11:18:33.334Z,80.67
2018-12-06T11:21:01.986Z,79.53
2018-12-06T11:23:30.504Z,81.73
2018-12-06T11:25:59.006Z,81.27
2018-12-06T11:28:27.517Z,86.93
2018-12-06T11:30:56.008Z,114.80
2018-12-06T11:33:24.523Z,85.13
2018-12-06T11:35:53.024Z,80.20
2018-12-06T11:38:21.498Z,72.77
2018-12-06T11:40:49.991Z,71.37
2018-12-06T11:43:18.502Z,71.87
2018-12-06T11:45:46.979Z,72.57
2018-12-06T11:48:15.391Z,71.70
2018-12-06T11:50:43.895Z,73.77
2018-12-06T11:53:12.602Z,74.20
2018-12-06T11:57:05.286Z,74.70
2018-12-06T11:59:33.780Z,70.07
2018-12-06T12:02:09.767Z,72.60
2018-12-06T12:04:32.841Z,74.17
2018-12-06T12:07:01.301Z,72.50
2018-12-06T12:09:29.809Z,71.60
2018-12-06T12:11:58.388Z,73.97
2018-12-06T12:14:26.848Z,72.17
2018-12-06T12:16:55.441Z,71.67
2018-12-06T12:19:23.971Z,74.43
2018-12-06T12:21:52.404Z,74.40
2018-12-06T12:24:20.877Z,74.03
2018-12-06T12:26:49.407Z,73.63
2018-12-06T12:29:17.902Z,76.60
2018-12-06T12:31:46.356Z,72.73
2018-12-06T12:34:14.886Z,75.80
2018-12-06T12:36:43.334Z,72.00
2018-12-06T12:39:11.776Z,67.20
2018-12-06T12:41:40.276Z,72.27
2018-12-06T12:44:08.955Z,73.43
2018-12-06T12:46:37.428Z,71.80
2018-12-06T12:49:05.977Z,68.17
2018-12-06T12:51:34.592Z,66.17
2018-12-06T12:54:03.032Z,68.93
2018-12-06T12:56:31.633Z,74.80
2018-12-06T12:59:00.084Z,70.30
2018-12-06T13:01:28.535Z,65.70
2018-12-06T13:03:57.044Z,63.63
2018-12-06T13:06:25.606Z,61.97
2018-12-06T13:08:54.016Z,59.63
2018-12-06T13:11:22.499Z,61.30
2018-12-06T13:13:50.956Z,60.93
2018-12-06T13:16:19.579Z,60.10
2018-12-06T13:18:48.216Z,57.47
2018-12-06T13:21:16.889Z,58.67
2018-12-06T13:23:45.323Z,62.97
2018-12-06T13:26:13.832Z,60.93
2018-12-06T13:28:42.763Z,61.27
2018-12-06T13:31:11.356Z,57.10
2018-12-06T13:33:39.855Z,50.47
2018-12-06T13:36:09.304Z,48.40
2018-12-06T13:38:37.916Z,44.43
2018-12-06T13:41:06.391Z,46.40
2018-12-06T13:43:34.863Z,47.27
2018-12-06T13:46:03.498Z,49.13
2018-12-06T13:48:32.091Z,47.03
2018-12-06T13:51:00.572Z,48.60
2018-12-06T13:53:29.022Z,47.00
2018-12-06T13:55:57.694Z,43.80
2018-12-06T13:58:26.157Z,44.13
2018-12-06T14:00:55.062Z,45.70
2018-12-06T14:03:24.082Z,45.97
2018-12-06T14:05:52.508Z,42.67
2018-12-06T14:08:20.942Z,41.20
2018-12-06T14:10:52.599Z,42.30
2018-12-06T14:13:23.605Z,42.57
2018-12-06T14:15:51.573Z,44.37
2018-12-06T14:18:20.060Z,43.03
2018-12-06T14:20:48.496Z,45.47
2018-12-06T14:23:17.026Z,45.00
2018-12-06T14:25:45.556Z,45.87
2018-12-06T14:28:14.015Z,46.33
2018-12-06T14:30:42.508Z,44.73
2018-12-06T14:33:11.027Z,66.93
2018-12-06T14:35:39.519Z,55.43
2018-12-06T14:38:08.165Z,105.33
2018-12-06T14:40:36.828Z,50.23
2018-12-06T14:43:05.450Z,44.50
2018-12-06T14:45:33.911Z,44.10
2018-12-06T14:48:02.562Z,42.50
2018-12-06T14:50:31.026Z,43.00
2018-12-06T14:52:59.430Z,44.67
2018-12-06T14:55:28.037Z,45.17
2018-12-06T14:57:56.643Z,46.63
2018-12-06T15:00:25.092Z,44.63
2018-12-06T15:02:53.601Z,43.77
2018-12-06T15:05:22.066Z,42.90
2018-12-06T15:07:50.517Z,41.67
2018-12-06T15:10:19.016Z,40.90
2018-12-06T15:12:47.478Z,40.90
2018-12-06T15:15:15.942Z,42.67
2018-12-06T15:17:44.427Z,42.57
2018-12-06T15:20:12.869Z,44.07
2018-12-06T15:22:41.332Z,44.63
2018-12-06T15:25:09.956Z,47.07
2018-12-06T15:27:38.821Z,48.10
2018-12-06T15:30:09.590Z,56.87
2018-12-06T15:32:38.114Z,47.33
2018-12-06T15:35:06.932Z,90.60
2018-12-06T15:37:35.406Z,60.57
2018-12-06T15:40:04.885Z,54.17
2018-12-06T15:42:33.343Z,48.83
2018-12-06T15:45:01.803Z,55.23
2018-12-06T15:47:30.328Z,57.03
2018-12-06T15:49:58.790Z,49.30
2018-12-06T15:52:27.264Z,48.20
2018-12-06T15:54:55.740Z,51.23
2018-12-06T15:57:24.249Z,51.63
2018-12-06T15:59:52.740Z,54.27
2018-12-06T16:02:21.287Z,54.90
2018-12-06T16:04:49.743Z,53.07
2018-12-06T16:07:18.183Z,50.00
2018-12-06T16:09:46.715Z,47.73
2018-12-06T16:12:15.175Z,46.30
2018-12-06T16:14:43.775Z,46.07
2018-12-06T16:17:12.313Z,45.43
2018-12-06T16:19:40.795Z,45.93
2018-12-06T16:22:09.248Z,45.67
2018-12-06T16:24:38.053Z,45.97
2018-12-06T16:27:06.537Z,46.20
2018-12-06T16:29:35.121Z,47.20
2018-12-06T16:32:03.788Z,45.23
2018-12-06T16:34:32.313Z,44.87
2018-12-06T16:37:00.787Z,45.90
2018-12-06T16:39:29.435Z,44.67
2018-12-06T16:41:57.932Z,40.80
2018-12-06T16:44:26.371Z,38.77
2018-12-06T16:46:54.920Z,33.83
2018-12-06T16:49:23.366Z,33.20
2018-12-06T16:51:51.975Z,32.53
2018-12-06T16:54:20.560Z,31.47
2018-12-06T16:56:49.063Z,31.53
2018-12-06T16:59:17.498Z,32.37
2018-12-06T17:01:45.977Z,31.97
2018-12-06T17:04:14.420Z,52.40
2018-12-06T17:06:42.944Z,42.80
2018-12-06T17:09:11.615Z,39.53
2018-12-06T17:11:40.086Z,39.77
2018-12-06T17:14:08.565Z,37.30
2018-12-06T17:16:37.241Z,33.10
2018-12-06T17:19:05.893Z,30.67
2018-12-06T17:21:34.356Z,27.63
2018-12-06T17:24:02.914Z,24.87
2018-12-06T17:26:31.484Z,24.10
2018-12-06T17:28:59.972Z,23.37
2018-12-06T17:31:28.520Z,22.50
2018-12-06T17:33:56.981Z,22.23
2018-12-06T17:36:25.508Z,24.63
2018-12-06T17:38:54.040Z,26.07
2018-12-06T17:41:22.476Z,25.13
2018-12-06T17:43:51.053Z,24.70
2018-12-06T17:46:19.692Z,23.33
2018-12-06T17:48:48.168Z,27.10
2018-12-06T17:51:16.876Z,26.97
2018-12-06T17:53:51.968Z,27.50
2018-12-06T17:56:16.109Z,26.67
2018-12-06T17:58:44.740Z,31.30
2018-12-06T18:01:13.351Z,30.57
2018-12-06T18:03:41.980Z,32.47
2018-12-06T18:06:10.734Z,32.03
2018-12-06T18:08:39.218Z,30.43
2018-12-06T18:11:07.655Z,31.50
2018-12-06T18:13:36.094Z,36.47
2018-12-06T18:16:07.854Z,39.23
2018-12-06T18:18:40.410Z,40.90
2018-12-06T18:21:06.827Z,39.30
2018-12-06T18:23:35.486Z,39.00
2018-12-06T18:26:03.997Z,46.13
2018-12-06T18:28:32.612Z,44.10
2018-12-06T18:31:01.100Z,44.07
2018-12-06T18:33:29.744Z,52.83
2018-12-06T18:35:58.339Z,60.10
2018-12-06T18:38:26.884Z,68.77
2018-12-06T18:40:55.347Z,58.60
2018-12-06T18:43:23.909Z,46.27
2018-12-06T18:45:52.524Z,43.30
2018-12-06T18:48:21.080Z,46.77
2018-12-06T18:50:49.532Z,57.10
2018-12-06T18:53:18.004Z,59.10
2018-12-06T18:55:46.501Z,51.53
2018-12-06T18:58:14.982Z,46.57
2018-12-06T19:00:43.498Z,40.47
2018-12-06T19:03:11.999Z,38.13
2018-12-06T19:05:40.480Z,35.47
2018-12-06T19:08:09.026Z,35.07
2018-12-06T19:10:37.570Z,33.67
2018-12-06T19:13:06.490Z,30.30
2018-12-06T19:15:38.148Z,33.60
2018-12-06T19:18:06.629Z,28.30
2018-12-06T19:20:35.123Z,27.57
2018-12-06T19:23:03.735Z,28.13
2018-12-06T19:25:32.177Z,27.87
2018-12-06T19:28:00.801Z,29.20
2018-12-06T19:30:29.321Z,27.77
2018-12-06T19:33:02.837Z,27.47
2018-12-06T19:35:28.354Z,28.20
2018-12-06T19:37:58.123Z,25.27
2018-12-06T19:40:26.699Z,25.77
2018-12-06T19:42:55.144Z,33.73
2018-12-06T19:45:23.724Z,29.80
2018-12-06T19:47:52.195Z,32.60
2018-12-06T19:50:20.785Z,33.77
2018-12-06T19:52:49.311Z,30.17
2018-12-06T19:55:17.765Z,25.93
2018-12-06T19:57:46.254Z,27.60
2018-12-06T20:00:14.839Z,28.77
2018-12-06T20:02:43.309Z,26.60
2018-12-06T20:05:11.807Z,26.90
2018-12-06T20:07:40.324Z,23.13
2018-12-06T20:10:10.163Z,24.90
2018-12-06T20:12:38.644Z,23.43
2018-12-06T20:15:07.675Z,23.60
2018-12-06T20:17:36.111Z,24.03
2018-12-06T20:20:05.172Z,30.17
2018-12-06T20:22:33.814Z,34.80
2018-12-06T20:25:02.290Z,38.73
2018-12-06T20:27:30.735Z,34.23
2018-12-06T20:29:59.300Z,35.40
2018-12-06T20:32:27.894Z,33.93
2018-12-06T20:34:56.409Z,26.83
2018-12-06T20:37:24.924Z,27.97
2018-12-06T20:39:53.411Z,25.00
2018-12-06T20:42:21.899Z,26.23
2018-12-06T20:44:50.455Z,27.00
2018-12-06T20:47:19.923Z,26.43
2018-12-06T20:49:48.401Z,25.10
2018-12-06T20:52:16.993Z,26.63
2018-12-06T20:54:45.454Z,29.47
2018-12-06T20:57:13.885Z,31.73
2018-12-06T20:59:42.420Z,31.57
2018-12-06T21:02:10.926Z,69.03
2018-12-06T21:04:39.488Z,70.50
2018-12-06T21:07:08.026Z,56.37
2018-12-06T21:09:36.958Z,42.43
2018-12-06T21:12:05.403Z,41.30
2018-12-06T21:14:33.928Z,46.27
2018-12-06T21:17:02.632Z,48.37
2018-12-06T21:19:31.051Z,50.67
2018-12-06T21:21:59.543Z,40.87
2018-12-06T21:24:27.981Z,37.97
2018-12-06T21:26:56.424Z,35.20
2018-12-06T21:29:25.071Z,35.53
2018-12-06T21:31:53.745Z,34.20
2018-12-06T21:34:22.213Z,33.07
2018-12-06T21:36:50.828Z,31.77
2018-12-06T21:39:19.408Z,30.70
2018-12-06T21:41:47.887Z,28.67
2018-12-06T21:44:16.552Z,33.03
2018-12-06T21:46:45.024Z,40.20
2018-12-06T21:49:13.628Z,39.93
2018-12-06T21:51:42.211Z,34.77
2018-12-06T21:54:10.763Z,31.60
2018-12-06T21:56:39.221Z,30.90
2018-12-06T21:59:07.660Z,29.87
2018-12-06T22:01:36.128Z,26.43
2018-12-06T22:04:04.729Z,28.23
2018-12-06T22:06:33.370Z,25.50
2018-12-06T22:09:01.822Z,23.70
2018-12-06T22:12:33.139Z,22.23
2018-12-06T22:15:01.612Z,25.13
2018-12-06T22:17:30.152Z,24.07
2018-12-06T22:19:58.639Z,21.27
2018-12-06T22:22:27.080Z,20.77
2018-12-06T22:24:55.550Z,18.90
2018-12-06T22:27:24.055Z,19.93
2018-12-06T22:29:52.500Z,20.03
2018-12-06T22:32:20.940Z,20.40
2018-12-06T22:34:49.717Z,19.53
2018-12-06T22:37:18.145Z,21.27
2018-12-06T22:39:46.663Z,21.73
2018-12-06T22:42:15.253Z,23.57
2018-12-06T22:44:43.693Z,25.93
2018-12-06T22:47:12.154Z,26.10
2018-12-06T22:49:40.755Z,25.30
2018-12-06T22:52:09.216Z,25.10
2018-12-06T22:54:37.803Z,25.47
2018-12-06T22:57:06.286Z,23.70
2018-12-06T22:59:34.777Z,21.90
2018-12-06T23:02:03.393Z,23.70
2018-12-06T23:04:32.011Z,23.30
2018-12-06T23:07:00.489Z,21.77
2018-12-06T23:09:28.909Z,20.33
2018-12-06T23:11:57.478Z,21.50
2018-12-06T23:14:25.896Z,23.00
2018-12-06T23:16:54.672Z,21.50
2018-12-06T23:19:23.240Z,20.47
2018-12-06T23:21:51.741Z,21.10
2018-12-06T23:24:20.343Z,21.20
2018-12-06T23:26:48.891Z,20.77
2018-12-06T23:29:17.372Z,20.40
2018-12-06T23:31:45.833Z,19.50
2018-12-06T23:34:14.349Z,17.40
2018-12-06T23:36:42.952Z,17.87
2018-12-06T23:39:11.395Z,17.03
2018-12-06T23:41:39.876Z,17.60
2018-12-06T23:44:08.304Z,16.90
2018-12-06T23:46:36.771Z,18.90
2018-12-06T23:49:05.298Z,22.47
2018-12-06T23:51:38.420Z,20.27
2018-12-06T23:54:07.075Z,16.10
2018-12-06T23:56:35.588Z,17.00
2018-12-06T23:59:04.239Z,16.00
